| time (UTC) | temp C | wind direction | speed KPH | gust KPH | rain 1hr cm | rain 24hr cm | rain mn cm | humidity % | barometer mb |
| 20260505193952 | 15 | 98 | 11.3 | 22.5 | 0.43 | 3.66 | 3.66 | 99 | 1015.3 |
| 20260505193450 | 15 | 94 | 9.7 | 12.9 | 0.43 | 3.61 | 3.61 | 99 | 1015.4 |
| 20260505192947 | 15 | 63 | 3.2 | 11.3 | 0.53 | 3.58 | 3.58 | 99 | 1015.4 |
| 20260505192446 | 15 | 108 | 11.3 | 14.5 | 0.53 | 3.53 | 3.53 | 99 | 1015.4 |
| 20260505191943 | 15 | 110 | 11.3 | 19.3 | 0.43 | 3.48 | 3.48 | 99 | 1015.2 |
| 20260505191442 | 15 | 108 | 9.7 | 19.3 | 0.48 | 3.43 | 3.43 | 99 | 1015.4 |
| 20260505190938 | 15 | 94 | 14.5 | 20.9 | 0.48 | 3.38 | 3.38 | 99 | 1015.6 |
| 20260505190433 | 15 | 114 | 4.8 | 19.3 | 0.61 | 3.33 | 3.33 | 99 | 1015.6 |
| 20260505185929 | 15 | 101 | 8.0 | 12.9 | 0.89 | 3.30 | 3.30 | 99 | 1015.8 |
| 20260505185427 | 15 | 98 | 14.5 | 14.5 | 1.07 | 3.23 | 3.23 | 99 | 1015.8 |
| 20260505184923 | 15 | 121 | 1.6 | 16.1 | 1.27 | 3.12 | 3.12 | 99 | 1015.9 |
| 20260505184420 | 15 | 115 | 14.5 | 24.1 | 1.85 | 3.02 | 3.02 | 99 | 1015.8 |
| 20260505183916 | 15 | 93 | 4.8 | 9.7 | 1.55 | 2.90 | 2.90 | 99 | 1015.9 |
| 20260505183413 | 15 | 155 | 4.8 | 9.7 | 0.71 | 2.69 | 2.69 | 99 | 1015.8 |
| 20260505182910 | 15 | 149 | 6.4 | 8.0 | 0.71 | 2.62 | 2.62 | 99 | 1015.8 |
| 20260505182407 | 15 | 141 | 3.2 | 8.0 | 0.97 | 2.57 | 2.57 | 99 | 1015.7 |
| 20260505181903 | 15 | 119 | 3.2 | 8.0 | 1.02 | 2.49 | 2.49 | 99 | 1015.7 |
| 20260505181401 | 15 | 122 | 4.8 | 8.0 | 1.37 | 2.39 | 2.39 | 99 | 1015.7 |
| 20260505180857 | 15 | 121 | 3.2 | 8.0 | 1.27 | 2.29 | 2.29 | 99 | 1016.0 |
| 20260505180354 | 15 | 121 | 8.0 | 12.9 | 0.53 | 2.13 | 2.13 | 99 | 1016.0 |
| 20260505175850 | 16 | 146 | 9.7 | 11.3 | 0.43 | 2.08 | 2.08 | 99 | 1015.9 |
| 20260505175347 | 16 | 128 | 6.4 | 9.7 | 0.48 | 2.03 | 2.03 | 99 | 1016.3 |
| 20260505174843 | 16 | 131 | 3.2 | 6.4 | 1.27 | 2.01 | 2.01 | 99 | 1016.3 |
| 20260505174341 | 16 | 137 | 6.4 | 6.4 | 1.02 | 1.93 | 1.93 | 99 | 1016.0 |
| 20260505173836 | 16 | 130 | 6.4 | 8.0 | 0.23 | 1.75 | 1.75 | 99 | 1016.1 |
| 20260505173333 | 15 | 132 | 3.2 | 11.3 | 0.23 | 1.75 | 1.75 | 99 | 1016.2 |
| 20260505172830 | 15 | 128 | 9.7 | 12.9 | 0.18 | 1.73 | 1.73 | 99 | 1016.1 |
| 20260505172328 | 15 | 118 | 8.0 | 14.5 | 0.18 | 1.70 | 1.70 | 99 | 1015.9 |
| 20260505171827 | 15 | 155 | 3.2 | 9.7 | 0.18 | 1.70 | 1.70 | 99 | 1015.6 |
| 20260505171325 | 15 | 151 | 4.8 | 11.3 | 0.18 | 1.68 | 1.68 | 99 | 1015.7 |
| 20260505170821 | 15 | 163 | 3.2 | 11.3 | 0.23 | 1.65 | 1.65 | 99 | 1015.7 |
| 20260505170318 | 15 | 148 | 4.8 | 12.9 | 0.53 | 1.65 | 1.65 | 99 | 1015.6 |
| 20260505165813 | 15 | 134 | 4.8 | 9.7 | 0.71 | 1.60 | 1.60 | 99 | 1015.7 |
| 20260505165309 | 15 | 116 | 12.9 | 19.3 | 0.48 | 1.55 | 1.55 | 99 | 1015.6 |
| 20260505164805 | 15 | 138 | 8.0 | 16.1 | 0.23 | 1.47 | 1.47 | 99 | 1015.7 |
| 20260505164303 | 15 | 147 | 4.8 | 14.5 | 0.30 | 1.45 | 1.45 | 99 | 1015.7 |
| 20260505163801 | 15 | 146 | 8.0 | 8.0 | 0.43 | 1.45 | 1.45 | 99 | 1015.5 |
| 20260505163259 | 15 | 131 | 9.7 | 9.7 | 0.66 | 1.42 | 1.42 | 99 | 1015.7 |
| 20260505162756 | 15 | 140 | 4.8 | 17.7 | 0.71 | 1.37 | 1.37 | 99 | 1015.6 |
| 20260505162253 | 15 | 152 | 3.2 | 8.0 | 0.66 | 1.30 | 1.30 | 99 | 1015.7 |
| 20260505161750 | 15 | 127 | 3.2 | 9.7 | 0.53 | 1.22 | 1.22 | 99 | 1015.7 |
| 20260505161247 | 15 | 144 | 6.4 | 11.3 | 0.61 | 1.17 | 1.17 | 99 | 1015.8 |
| 20260505160744 | 15 | 171 | 3.2 | 8.0 | 0.48 | 1.14 | 1.14 | 99 | 1015.9 |
| 20260505160242 | 15 | 134 | 4.8 | 9.7 | 0.18 | 1.07 | 1.07 | 99 | 1015.8 |
| 20260505153221 | 15 | 193 | 3.2 | 11.3 | 0.43 | 0.94 | 0.94 | 99 | 1015.5 |
| 20260505152718 | 15 | 186 | 4.8 | 8.0 | 0.61 | 0.89 | 0.89 | 99 | 1015.6 |
| 20260505152214 | 15 | 151 | 9.7 | 11.3 | 0.43 | 0.86 | 0.86 | 99 | 1015.8 |
| 20260505151709 | 15 | 178 | 9.7 | 11.3 | 0.13 | 0.81 | 0.81 | 99 | 1016.0 |
| 20260505151207 | 15 | 174 | 6.4 | 11.3 | 0.00 | 0.79 | 0.79 | 99 | 1016.0 |
| 20260505150703 | 15 | 161 | 9.7 | 14.5 | 0.00 | 0.79 | 0.79 | 99 | 1015.8 |
| 20260505150200 | 15 | 159 | 6.4 | 17.7 | 0.13 | 0.79 | 0.79 | 99 | 1015.6 |
| 20260505140628 | 15 | 159 | 4.8 | 11.3 | 0.30 | 0.43 | 0.43 | 99 | 1016.0 |
| 20260505140125 | 15 | 175 | 14.5 | 16.1 | 0.13 | 0.41 | 0.41 | 99 | 1016.1 |
| 20260505125041 | 15 | 185 | 6.4 | 14.5 | 0.00 | 0.25 | 0.25 | 95 | 1016.8 |
| 20260505124538 | 15 | 203 | 6.4 | 12.9 | 0.00 | 0.25 | 0.25 | 95 | 1016.9 |
| 20260505124034 | 16 | 205 | 3.2 | 8.0 | 0.00 | 0.25 | 0.25 | 96 | 1016.7 |
| 20260505123531 | 16 | 213 | 6.4 | 12.9 | 0.00 | 0.25 | 0.25 | 96 | 1016.5 |
| 20260505123027 | 16 | 183 | 3.2 | 12.9 | 0.00 | 0.25 | 0.25 | 96 | 1016.4 |
| 20260505122524 | 16 | 183 | 4.8 | 9.7 | 0.00 | 0.25 | 0.25 | 96 | 1016.4 |
| 20260505122021 | 15 | 231 | 8.0 | 11.3 | 0.00 | 0.25 | 0.25 | 97 | 1016.5 |
| 20260505121518 | 15 | 223 | 8.0 | 11.3 | 0.00 | 0.25 | 0.25 | 97 | 1016.5 |
| 20260505121014 | 15 | 233 | 6.4 | 14.5 | 0.00 | 0.25 | 0.25 | 97 | 1016.7 |
| 20260505120511 | 15 | 207 | 8.0 | 12.9 | 0.00 | 0.25 | 0.25 | 98 | 1016.6 |
| 20260505120006 | 15 | 201 | 4.8 | 14.5 | 0.00 | 0.25 | 0.25 | 98 | 1016.8 |
| 20260505115501 | 15 | 224 | 4.8 | 14.5 | 0.00 | 0.25 | 0.25 | 98 | 1016.9 |
| 20260505114959 | 15 | 228 | 8.0 | 17.7 | 0.00 | 0.25 | 0.25 | 98 | 1017.0 |
| 20260505114455 | 15 | 236 | 11.3 | 20.9 | 0.00 | 0.25 | 0.25 | 97 | 1017.0 |
| 20260505113952 | 15 | 217 | 11.3 | 19.3 | 0.00 | 0.25 | 0.25 | 97 | 1016.9 |
| 20260505113449 | 15 | 229 | 9.7 | 22.5 | 0.00 | 0.25 | 0.25 | 97 | 1017.1 |
| 20260505112944 | 15 | 246 | 9.7 | 14.5 | 0.00 | 0.25 | 0.25 | 98 | 1017.1 |
| 20260505112442 | 15 | 204 | 9.7 | 17.7 | 0.00 | 0.25 | 0.25 | 97 | 1017.4 |
| 20260505111938 | 15 | 197 | 9.7 | 14.5 | 0.00 | 0.25 | 0.25 | 97 | 1017.6 |
| 20260505111432 | 15 | 210 | 16.1 | 17.7 | 0.00 | 0.25 | 0.25 | 97 | 1017.7 |
| 20260505110929 | 15 | 220 | 8.0 | 20.9 | 0.00 | 0.25 | 0.25 | 97 | 1017.5 |
| 20260505110426 | 15 | 188 | 6.4 | 16.1 | 0.00 | 0.25 | 0.25 | 97 | 1017.5 |
| 20260505101857 | 14 | 219 | 6.4 | 17.7 | 0.18 | 0.25 | 0.25 | 97 | 1018.1 |
| 20260505101352 | 14 | 206 | 8.0 | 17.7 | 0.36 | 0.25 | 0.25 | 96 | 1018.3 |
| 20260505100848 | 14 | 194 | 9.7 | 11.3 | 0.43 | 0.23 | 0.23 | 96 | 1018.3 |
| 20260505100344 | 14 | 201 | 4.8 | 12.9 | 0.36 | 0.18 | 0.18 | 95 | 1018.5 |
| 20260505095840 | 14 | 228 | 8.0 | 12.9 | 0.05 | 0.15 | 0.15 | 94 | 1018.7 |
| 20260505095338 | 14 | 199 | 3.2 | 16.1 | 0.00 | 0.13 | 0.13 | 94 | 1018.8 |
| 20260505094834 | 14 | 208 | 4.8 | 16.1 | 0.00 | 0.13 | 0.13 | 95 | 1018.7 |
| 20260505094331 | 14 | 232 | 6.4 | 16.1 | 0.00 | 0.13 | 0.13 | 95 | 1018.4 |
| 20260505093826 | 14 | 186 | 17.7 | 19.3 | 0.00 | 0.13 | 0.13 | 95 | 1018.2 |
| 20260505093324 | 14 | 208 | 8.0 | 20.9 | 0.00 | 0.13 | 0.13 | 95 | 1018.4 |
| 20260505092821 | 14 | 235 | 11.3 | 19.3 | 0.00 | 0.13 | 0.13 | 95 | 1018.4 |
| 20260505092319 | 14 | 210 | 14.5 | 17.7 | 0.00 | 0.13 | 0.13 | 95 | 1018.5 |
| 20260505091816 | 14 | 219 | 14.5 | 24.1 | 0.05 | 0.13 | 0.13 | 95 | 1018.6 |
| 20260505091314 | 14 | 212 | 8.0 | 22.5 | 0.18 | 0.13 | 0.13 | 95 | 1018.4 |
| 20260505090812 | 14 | 200 | 6.4 | 16.1 | 0.30 | 0.13 | 0.13 | 94 | 1018.4 |
| 20260505090310 | 14 | 204 | 11.3 | 16.1 | 0.23 | 0.10 | 0.10 | 93 | 1018.8 |
| 20260505085807 | 15 | 198 | 0.0 | 16.1 | 0.05 | 0.08 | 0.08 | 92 | 1018.7 |
| 20260505085305 | 15 | 226 | 14.5 | 22.5 | 0.00 | 0.05 | 0.05 | 91 | 1018.7 |
| 20260505084802 | 15 | 201 | 3.2 | 14.5 | 0.00 | 0.05 | 0.05 | 91 | 1018.6 |
| 20260505084301 | 15 | 212 | 4.8 | 14.5 | 0.00 | 0.05 | 0.05 | 91 | 1018.6 |
| 20260505083757 | 15 | 225 | 8.0 | 14.5 | 0.00 | 0.05 | 0.05 | 91 | 1018.3 |
| 20260505083254 | 15 | 230 | 4.8 | 11.3 | 0.00 | 0.05 | 0.05 | 91 | 1018.4 |
| 20260505082750 | 15 | 246 | 6.4 | 24.1 | 0.00 | 0.05 | 0.05 | 90 | 1018.5 |
| 20260505082248 | 15 | 214 | 8.0 | 22.5 | 0.00 | 0.05 | 0.05 | 90 | 1018.5 |
| 20260505081743 | 15 | 219 | 9.7 | 27.4 | 0.00 | 0.05 | 0.05 | 91 | 1018.5 |
| 20260505081241 | 14 | 217 | 14.5 | 25.7 | 0.00 | 0.05 | 0.05 | 91 | 1018.7 |
| 20260505080738 | 14 | 203 | 12.9 | 19.3 | 0.00 | 0.05 | 0.05 | 91 | 1018.7 |
| 20260505080233 | 14 | 222 | 9.7 | 17.7 | 0.00 | 0.05 | 0.05 | 91 | 1018.8 |
| 20260505075729 | 14 | 243 | 4.8 | 12.9 | 0.00 | 0.05 | 0.05 | 92 | 1018.9 |
| 20260505075227 | 14 | 250 | 8.0 | 20.9 | 0.00 | 0.05 | 0.05 | 91 | 1018.8 |
| 20260505074724 | 14 | 245 | 9.7 | 20.9 | 0.00 | 0.05 | 0.05 | 91 | 1018.6 |
| 20260505074221 | 14 | 222 | 9.7 | 19.3 | 0.00 | 0.05 | 0.05 | 90 | 1018.6 |
| 20260505073718 | 14 | 233 | 14.5 | 25.7 | 0.00 | 0.05 | 0.05 | 90 | 1018.7 |
| 20260505073216 | 14 | 227 | 12.9 | 22.5 | 0.00 | 0.05 | 0.05 | 92 | 1018.7 |
| 20260505072712 | 13 | 205 | 11.3 | 22.5 | 0.00 | 0.05 | 0.05 | 93 | 1018.6 |
| 20260505072208 | 13 | 213 | 6.4 | 25.7 | 0.00 | 0.05 | 0.05 | 94 | 1018.9 |
| 20260505071704 | 13 | 209 | 8.0 | 19.3 | 0.00 | 0.05 | 0.05 | 94 | 1018.6 |
| 20260505071201 | 13 | 217 | 14.5 | 19.3 | 0.00 | 0.05 | 0.05 | 94 | 1018.6 |
| 20260505070659 | 13 | 183 | 9.7 | 20.9 | 0.05 | 0.05 | 0.05 | 95 | 1018.6 |
| 20260505070155 | 13 | 231 | 4.8 | 25.7 | 0.05 | 0.05 | 0.05 | 95 | 1018.6 |
| 20260505065651 | 13 | 238 | 4.8 | 16.1 | 0.00 | 0.05 | 0.05 | 95 | 1018.4 |
| 20260505065148 | 13 | 163 | 4.8 | 30.6 | 0.13 | 0.05 | 0.05 | 94 | 1018.4 |
| 20260505064645 | 13 | 213 | 11.3 | 17.7 | 0.23 | 0.05 | 0.05 | 93 | 1018.6 |
| 20260505064143 | 13 | 270 | 8.0 | 20.9 | 0.13 | 0.03 | 0.03 | 92 | 1018.5 |
| 20260505063640 | 13 | 259 | 6.4 | 22.5 | 0.05 | 0.00 | 0.00 | 91 | 1018.3 |
| 20260505063136 | 13 | 251 | 12.9 | 20.9 | 0.05 | 0.00 | 0.00 | 90 | 1018.4 |
| 20260505062633 | 14 | 216 | 4.8 | 16.1 | 0.00 | 0.00 | 0.00 | 88 | 1018.4 |
| 20260505062130 | 15 | 217 | 4.8 | 24.1 | 0.00 | 0.00 | 0.00 | 85 | 1018.4 |
| 20260505061627 | 15 | 237 | 6.4 | 25.7 | 0.00 | 0.00 | 0.00 | 83 | 1018.2 |
| 20260505061125 | 15 | 231 | 4.8 | 14.5 | 0.00 | 0.00 | 0.00 | 83 | 1018.1 |
| 20260505060622 | 15 | 191 | 4.8 | 20.9 | 0.00 | 0.00 | 0.00 | 83 | 1017.9 |
| 20260505060119 | 15 | 196 | 6.4 | 24.1 | 0.00 | 0.00 | 0.00 | 83 | 1017.9 |
| 20260505055614 | 15 | 224 | 11.3 | 19.3 | 0.00 | 0.00 | 0.00 | 83 | 1017.7 |
| 20260505055111 | 15 | 201 | 11.3 | 24.1 | 0.00 | 0.00 | 0.00 | 83 | 1017.6 |
| 20260505054608 | 15 | 235 | 12.9 | 19.3 | 0.00 | 0.00 | 0.00 | 83 | 1017.5 |
| 20260505054107 | 15 | 224 | 16.1 | 25.7 | 0.00 | 0.00 | 0.00 | 84 | 1017.5 |
| 20260505053603 | 15 | 205 | 9.7 | 20.9 | 0.00 | 0.00 | 0.00 | 84 | 1017.6 |
| 20260505053100 | 15 | 207 | 3.2 | 24.1 | 0.00 | 0.00 | 0.00 | 84 | 1017.3 |
| 20260505052557 | 15 | 223 | 16.1 | 22.5 | 0.00 | 0.00 | 0.00 | 84 | 1017.5 |
| 20260505052054 | 15 | 240 | 9.7 | 24.1 | 0.00 | 0.00 | 0.00 | 83 | 1017.2 |
| 20260505051551 | 15 | 196 | 9.7 | 25.7 | 0.00 | 0.00 | 0.00 | 83 | 1017.2 |
| 20260505051049 | 15 | 213 | 9.7 | 32.2 | 0.00 | 0.00 | 0.00 | 83 | 1017.4 |
| 20260505050547 | 15 | 248 | 12.9 | 22.5 | 0.00 | 0.00 | 0.00 | 83 | 1017.2 |
| 20260505041515 | 14 | 231 | 12.9 | 24.1 | 0.00 | 0.00 | 0.00 | 81 | 1017.0 |
| 20260505041012 | 14 | 239 | 11.3 | 27.4 | 0.00 | 0.00 | 0.00 | 81 | 1017.1 |
| 20260505040509 | 14 | 227 | 19.3 | 19.3 | 0.00 | 0.00 | 0.00 | 81 | 1016.9 |
| 20260505040007 | 14 | 209 | 8.0 | 22.5 | 0.00 | 0.00 | 0.00 | 80 | 1017.0 |
| 20260505035502 | 14 | 228 | 12.9 | 19.3 | 0.00 | 0.00 | 0.00 | 79 | 1016.9 |
| 20260505034959 | 14 | 205 | 9.7 | 22.5 | 0.00 | 0.00 | 0.00 | 79 | 1016.7 |
| 20260505034455 | 14 | 233 | 8.0 | 17.7 | 0.00 | 0.00 | 0.00 | 80 | 1017.3 |
| 20260505033953 | 14 | 234 | 17.7 | 24.1 | 0.00 | 0.00 | 0.00 | 80 | 1016.8 |
| 20260505033449 | 14 | 218 | 11.3 | 19.3 | 0.00 | 0.00 | 0.00 | 80 | 1017.0 |
| 20260505032948 | 14 | 225 | 9.7 | 22.5 | 0.00 | 0.00 | 0.00 | 81 | 1017.1 |
| 20260505032445 | 14 | 220 | 8.0 | 17.7 | 0.00 | 0.00 | 0.00 | 82 | 1017.0 |
| 20260505031941 | 14 | 231 | 9.7 | 24.1 | 0.00 | 0.00 | 0.00 | 83 | 1016.9 |
| 20260505031438 | 14 | 222 | 12.9 | 24.1 | 0.00 | 0.00 | 0.00 | 83 | 1016.9 |
| 20260505030935 | 14 | 208 | 16.1 | 20.9 | 0.00 | 0.00 | 0.00 | 84 | 1016.9 |
| 20260505030431 | 14 | 225 | 8.0 | 19.3 | 0.00 | 0.00 | 0.00 | 84 | 1016.9 |
| 20260505025926 | 14 | 240 | 9.7 | 24.1 | 0.00 | 0.00 | 0.00 | 85 | 1016.7 |
| 20260505025424 | 14 | 216 | 17.7 | 27.4 | 0.00 | 0.00 | 0.00 | 85 | 1016.7 |
| 20260505024923 | 14 | 205 | 14.5 | 33.8 | 0.00 | 0.00 | 0.00 | 84 | 1016.9 |
| 20260505024420 | 14 | 197 | 9.7 | 24.1 | 0.00 | 0.00 | 0.00 | 85 | 1016.6 |
| 20260505023917 | 14 | 218 | 25.7 | 30.6 | 0.00 | 0.00 | 0.00 | 84 | 1016.7 |
| 20260505023414 | 15 | 210 | 16.1 | 32.2 | 0.00 | 0.00 | 0.00 | 83 | 1016.7 |
| 20260505022911 | 15 | 227 | 14.5 | 24.1 | 0.00 | 0.00 | 0.00 | 82 | 1016.4 |
| 20260505022408 | 15 | 285 | 19.3 | 25.7 | 0.00 | 0.00 | 0.00 | 83 | 1016.5 |
| 20260505021905 | 15 | 225 | 14.5 | 19.3 | 0.00 | 0.00 | 0.00 | 84 | 1016.6 |
| 20260505021402 | 15 | 238 | 12.9 | 24.1 | 0.00 | 0.00 | 0.00 | 83 | 1016.4 |
| 20260505020858 | 15 | 210 | 14.5 | 20.9 | 0.00 | 0.00 | 0.00 | 83 | 1016.4 |
| 20260505020353 | 15 | 225 | 9.7 | 37.0 | 0.00 | 0.00 | 0.00 | 83 | 1016.5 |
| 20260505015850 | 15 | 196 | 14.5 | 27.4 | 0.00 | 0.00 | 0.00 | 83 | 1016.2 |
| 20260505015347 | 15 | 205 | 20.9 | 33.8 | 0.00 | 0.00 | 0.00 | 83 | 1016.6 |
| 20260505014845 | 15 | 217 | 17.7 | 25.7 | 0.00 | 0.00 | 0.00 | 82 | 1016.4 |
| 20260505014341 | 15 | 219 | 24.1 | 32.2 | 0.00 | 0.00 | 0.00 | 82 | 1016.6 |
| 20260505013838 | 15 | 229 | 20.9 | 27.4 | 0.00 | 0.00 | 0.00 | 82 | 1016.3 |
| 20260505013335 | 15 | 220 | 6.4 | 24.1 | 0.00 | 0.00 | 0.00 | 83 | 1016.5 |
| 20260505012834 | 15 | 219 | 14.5 | 25.7 | 0.00 | 0.00 | 0.00 | 83 | 1016.3 |
| 20260505012331 | 15 | 197 | 14.5 | 37.0 | 0.00 | 0.00 | 0.00 | 83 | 1016.7 |
| 20260505011827 | 15 | 205 | 11.3 | 19.3 | 0.00 | 0.00 | 0.00 | 83 | 1016.4 |
| 20260505011324 | 15 | 148 | 4.8 | 19.3 | 0.00 | 0.00 | 0.00 | 83 | 1016.7 |
| 20260505010820 | 15 | 204 | 11.3 | 16.1 | 0.00 | 0.00 | 0.00 | 83 | 1016.6 |
| 20260505010316 | 15 | 203 | 11.3 | 25.7 | 0.00 | 0.00 | 0.00 | 84 | 1016.6 |
| 20260505005812 | 15 | 214 | 8.0 | 24.1 | 0.00 | 0.00 | 0.00 | 84 | 1016.8 |
| 20260505005310 | 15 | 244 | 17.7 | 20.9 | 0.00 | 0.00 | 0.00 | 84 | 1017.1 |
| 20260505004807 | 15 | 218 | 8.0 | 24.1 | 0.00 | 0.00 | 0.00 | 84 | 1016.8 |
| 20260505004303 | 15 | 215 | 17.7 | 20.9 | 0.00 | 0.00 | 0.00 | 84 | 1016.9 |
| 20260505003801 | 15 | 230 | 16.1 | 27.4 | 0.00 | 0.00 | 0.00 | 84 | 1016.8 |
| 20260505003258 | 15 | 219 | 16.1 | 30.6 | 0.00 | 0.00 | 0.00 | 85 | 1017.1 |
| 20260505002754 | 15 | 224 | 17.7 | 25.7 | 0.00 | 0.00 | 0.00 | 85 | 1017.1 |
| 20260505002251 | 15 | 205 | 9.7 | 20.9 | 0.00 | 0.00 | 0.00 | 84 | 1017.1 |
| 20260505001749 | 16 | 241 | 3.2 | 22.5 | 0.00 | 0.00 | 0.00 | 84 | 1017.2 |
| 20260505001246 | 16 | 238 | 16.1 | 19.3 | 0.00 | 0.00 | 0.00 | 84 | 1017.2 |
| 20260505000743 | 16 | 203 | 16.1 | 20.9 | 0.00 | 0.00 | 0.00 | 84 | 1017.3 |
| 20260505000241 | 16 | 219 | 3.2 | 20.9 | 0.00 | 0.00 | 0.00 | 84 | 1017.1 |
| 20260504235737 | 16 | 229 | 9.7 | 22.5 | 0.00 | 0.00 | 0.00 | 84 | 1017.1 |
| 20260504235233 | 16 | 205 | 12.9 | 27.4 | 0.00 | 0.00 | 0.00 | 84 | 1017.2 |
| 20260504234731 | 16 | 239 | 12.9 | 22.5 | 0.00 | 0.00 | 0.00 | 85 | 1017.1 |
| 20260504234228 | 16 | 208 | 8.0 | 24.1 | 0.00 | 0.00 | 0.00 | 85 | 1017.2 |
| 20260504233724 | 16 | 232 | 12.9 | 22.5 | 0.00 | 0.00 | 0.00 | 85 | 1017.2 |
| 20260504233220 | 16 | 219 | 8.0 | 25.7 | 0.00 | 0.00 | 0.00 | 84 | 1017.0 |
| 20260504232717 | 16 | 199 | 19.3 | 20.9 | 0.00 | 0.00 | 0.00 | 84 | 1016.9 |
| 20260504232214 | 16 | 238 | 11.3 | 20.9 | 0.00 | 0.00 | 0.00 | 84 | 1017.1 |
| 20260504231711 | 16 | 222 | 8.0 | 22.5 | 0.00 | 0.00 | 0.00 | 84 | 1017.1 |
| 20260504231207 | 16 | 193 | 6.4 | 27.4 | 0.00 | 0.00 | 0.00 | 84 | 1016.9 |
| 20260504230703 | 16 | 185 | 6.4 | 20.9 | 0.00 | 0.00 | 0.00 | 84 | 1016.9 |
| 20260504230202 | 16 | 198 | 19.3 | 27.4 | 0.00 | 0.00 | 0.00 | 83 | 1017.0 |
| 20260504225701 | 16 | 214 | 14.5 | 29.0 | 0.00 | 0.00 | 0.00 | 83 | 1017.0 |
| 20260504225156 | 16 | 204 | 17.7 | 27.4 | 0.00 | 0.00 | 0.00 | 83 | 1016.9 |
| 20260504224654 | 16 | 184 | 3.2 | 24.1 | 0.00 | 0.00 | 0.00 | 83 | 1016.9 |
| 20260504224150 | 16 | 211 | 12.9 | 25.7 | 0.00 | 0.00 | 0.00 | 83 | 1017.0 |
| 20260504223647 | 16 | 219 | 9.7 | 24.1 | 0.00 | 0.00 | 0.00 | 83 | 1016.8 |
| 20260504223143 | 16 | 222 | 12.9 | 19.3 | 0.00 | 0.00 | 0.00 | 83 | 1016.8 |
| 20260504222640 | 16 | 195 | 8.0 | 20.9 | 0.00 | 0.00 | 0.00 | 83 | 1016.7 |
| 20260504222137 | 16 | 213 | 11.3 | 30.6 | 0.00 | 0.00 | 0.00 | 83 | 1016.6 |
| 20260504221634 | 16 | 205 | 9.7 | 29.0 | 0.00 | 0.00 | 0.00 | 83 | 1016.9 |
| 20260504221131 | 16 | 191 | 6.4 | 24.1 | 0.00 | 0.00 | 0.00 | 83 | 1016.7 |
| 20260504220627 | 16 | 191 | 8.0 | 24.1 | 0.00 | 0.00 | 0.00 | 83 | 1016.8 |
| 20260504220126 | 16 | 211 | 6.4 | 25.7 | 0.00 | 0.00 | 0.00 | 83 | 1016.9 |
| 20260504215621 | 16 | 218 | 8.0 | 27.4 | 0.00 | 0.00 | 0.00 | 84 | 1017.0 |
| 20260504215119 | 16 | 185 | 16.1 | 24.1 | 0.00 | 0.00 | 0.00 | 84 | 1017.0 |
| 20260504214614 | 16 | 196 | 16.1 | 20.9 | 0.00 | 0.00 | 0.00 | 84 | 1016.8 |
| 20260504214111 | 16 | 231 | 14.5 | 20.9 | 0.00 | 0.00 | 0.00 | 85 | 1016.9 |
| 20260504213608 | 16 | 224 | 4.8 | 27.4 | 0.00 | 0.00 | 0.00 | 84 | 1017.0 |
| 20260504213105 | 16 | 245 | 12.9 | 24.1 | 0.00 | 0.00 | 0.00 | 85 | 1017.0 |
| 20260504212600 | 16 | 214 | 14.5 | 24.1 | 0.00 | 0.00 | 0.00 | 85 | 1017.0 |
| 20260504212058 | 16 | 202 | 17.7 | 24.1 | 0.00 | 0.00 | 0.00 | 85 | 1017.1 |
| 20260504211554 | 16 | 213 | 14.5 | 30.6 | 0.00 | 0.00 | 0.00 | 85 | 1016.9 |
| 20260504211051 | 16 | 204 | 14.5 | 17.7 | 0.00 | 0.00 | 0.00 | 86 | 1017.1 |
| 20260504210549 | 16 | 201 | 12.9 | 29.0 | 0.00 | 0.00 | 0.00 | 86 | 1017.3 |
| 20260504210045 | 16 | 214 | 14.5 | 20.9 | 0.00 | 0.00 | 0.00 | 87 | 1017.2 |
| 20260504205543 | 16 | 187 | 17.7 | 25.7 | 0.00 | 0.00 | 0.00 | 87 | 1017.5 |
| 20260504205041 | 16 | 194 | 9.7 | 17.7 | 0.00 | 0.00 | 0.00 | 88 | 1017.5 |
| 20260504204538 | 16 | 208 | 11.3 | 20.9 | 0.00 | 0.00 | 0.00 | 88 | 1017.8 |
| 20260504204038 | 16 | 225 | 12.9 | 22.5 | 0.00 | 0.00 | 0.00 | 89 | 1017.5 |
| 20260504203535 | 16 | 235 | 17.7 | 22.5 | 0.00 | 0.00 | 0.00 | 89 | 1017.6 |
| 20260504203032 | 16 | 217 | 12.9 | 17.7 | 0.00 | 0.00 | 0.00 | 89 | 1017.6 |
| 20260504202528 | 16 | 218 | 8.0 | 19.3 | 0.00 | 0.00 | 0.00 | 89 | 1017.5 |
| 20260504202025 | 16 | 228 | 16.1 | 27.4 | 0.00 | 0.00 | 0.00 | 90 | 1017.6 |
| 20260504201522 | 16 | 179 | 8.0 | 32.2 | 0.00 | 0.00 | 0.00 | 90 | 1017.5 |
| 20260504201020 | 16 | 208 | 11.3 | 24.1 | 0.00 | 0.00 | 0.00 | 90 | 1017.5 |
| 20260504200516 | 16 | 230 | 11.3 | 27.4 | 0.00 | 0.00 | 0.00 | 91 | 1017.7 |
| 20260504200013 | 16 | 193 | 11.3 | 22.5 | 0.00 | 0.00 | 0.00 | 91 | 1017.8 |
| 20260504195509 | 16 | 241 | 9.7 | 22.5 | 0.00 | 0.00 | 0.00 | 91 | 1017.7 |
| 20260504195006 | 16 | 219 | 17.7 | 25.7 | 0.00 | 0.00 | 0.00 | 91 | 1017.8 |
| 20260504194502 | 16 | 207 | 14.5 | 20.9 | 0.00 | 0.00 | 0.00 | 91 | 1017.7 |